Other Surface Observations
Issued by NWS Great Falls, MT

Home | Current Version | Previous Version | Text Only | Print | Product List | Glossary On
Versions: 1 2 3 4 5 6 7 8 9 10 11 12 13 14 15 16 17 18 19 20 21 22 23 24 25 26 27 28 29 30 31 32 33 34 35 36 37 38 39 40 41 42 43 44 45 46 47 48 49 50
000
SXUS55 KTFX 310429
OSOTFX
AREA AWOS OBSERVATIONS
NATIONAL WEATHER SERVICE GREAT FALLS MT
1029 PM MDT TUE AUG 30 2016

METAR KPWD 310430Z AUTO 10004KT 6SM 22/08 A3014 RMK PLENTYWOOD
METAR KPO1 310430Z AUTO 09011G16KT 10SM 23/12 A3008 RMK POPLAR
METAR K1S3 310430Z AUTO 14005KT 10SM 26/08 A3001 RMK FORSYTH
METAR KS71 310430Z AUTO 09003KT 10SM 21/13 A3002 RMK CHINOOK
METAR K6S5 310430Z AUTO 19005KT 9SM 20/07 A2998 RMK HAMILTON
METAR KS59 310430Z AUTO 08005KT 10SM 24/09 A2988 RMK LIBBY
METAR K88M 310430Z AUTO 00000KT 10SM 22/09 A2991 RMK EUREKA



USA.gov is the U.S. government's official web portal to all federal, state and local government web resources and services.